Time;durP1;ratioP1;P1;durP2;ratioP2;P2;SDS_P1;SDS_P2;PMS_P1;PMS_P2;Temp;Humidity;BMP_temperature;BMP_pressure;BME280_temperature;BME280_humidity;BME280_pressure;Samples;Min_cycle;Max_cycle;Signal;HPM_P1;HPM_P2
2022/04/06 00:01:16;;;;;;;;;;;;;;;24.36;35.64;93653.03;4940184;28;9059;-88
2022/04/06 00:03:43;;;;;;;;;;;;;;;24.37;36.04;93651.78;4931884;28;9049;-87
2022/04/06 00:06:10;;;;;;;;;;;;;;;24.31;35.78;93642.88;4929093;29;7134;-87
2022/04/06 00:08:36;;;;;;;;;;;;;;;24.36;35.44;93644.06;4930127;29;8724;-87
2022/04/06 00:11:06;;;;;;;;;;;;;;;24.31;35.61;93648.38;4932139;29;7223;-88
2022/04/06 00:13:37;;;;;;;;;;;;;;;24.36;35.70;93655.78;4931414;29;9351;-88
2022/04/06 00:16:03;;;;;;;;;;;;;;;24.35;35.59;93648.06;4932519;29;9074;-87
2022/04/06 00:18:29;;;;;;;;;;;;;;;24.32;35.50;93638.84;4942036;28;8769;-88
2022/04/06 00:20:55;;;;;;;;;;;;;;;24.32;35.61;93638.84;4929482;29;9002;-87
2022/04/06 00:23:23;;;;;;;;;;;;;;;24.36;35.90;93642.03;4932672;29;9386;-87
2022/04/06 00:25:49;;;;;;;;;;;;;;;24.36;35.59;93644.06;4928767;29;7249;-88
2022/04/06 00:28:17;;;;;;;;;;;;;;;24.35;35.76;93648.81;4941781;28;8998;-88
2022/04/06 00:30:44;;;;;;;;;;;;;;;24.33;36.00;93645.84;4932951;29;8709;-88
2022/04/06 00:33:18;;;;;;;;;;;;;;;24.35;35.49;93643.31;4930453;28;8987;-88
2022/04/06 00:35:48;;;;;;;;;;;;;;;24.34;35.27;93643.81;4936795;28;8450;-88
2022/04/06 00:38:14;;;;;;;;;;;;;;;24.35;35.38;93640.59;4936206;28;8789;-88
2022/04/06 00:40:41;;;;;;;;;;;;;;;24.30;35.70;93633.13;4948491;28;8748;-88
2022/04/06 00:43:16;;;;;;;;;;;;;;;24.30;36.02;93630.41;4936619;28;7280;-87
2022/04/06 00:45:43;;;;;;;;;;;;;;;24.32;35.86;93638.84;4945686;28;7526;-87
2022/04/06 00:48:14;;;;;;;;;;;;;;;24.35;35.64;93640.59;4948999;28;8782;-88
2022/04/06 00:50:46;;;;;;;;;;;;;;;24.34;35.48;93641.09;4948565;28;8763;-87
2022/04/06 00:53:18;;;;;;;;;;;;;;;24.26;35.75;93624.47;4926950;28;9101;-87
2022/04/06 00:55:48;;;;;;;;;;;;;;;24.31;36.30;93629.16;4948940;28;7114;-88
2022/04/06 00:58:14;;;;;;;;;;;;;;;24.27;35.73;93627.97;4939465;28;8711;-87
2022/04/06 01:00:43;;;;;;;;;;;;;;;24.29;35.62;93623.44;4942152;28;8851;-87
2022/04/06 01:03:16;;;;;;;;;;;;;;;24.28;35.70;93621.94;4950563;28;7038;-87
2022/04/06 01:05:45;;;;;;;;;;;;;;;24.28;35.50;93621.19;4946277;28;7518;-87
2022/04/06 01:08:14;;;;;;;;;;;;;;;24.31;36.10;93626.41;4942049;28;9090;-87
2022/04/06 01:10:45;;;;;;;;;;;;;;;24.31;35.94;93631.16;4950530;28;7259;-88
2022/04/06 01:13:18;;;;;;;;;;;;;;;24.27;35.60;93619.72;4937777;29;9000;-87
2022/04/06 01:15:45;;;;;;;;;;;;;;;24.29;35.67;93626.19;4955237;28;7240;-88
2022/04/06 01:18:13;;;;;;;;;;;;;;;24.31;36.05;93631.88;4946685;28;9057;-87
2022/04/06 01:20:39;;;;;;;;;;;;;;;24.26;35.72;93618.97;4942651;28;7522;-87
2022/04/06 01:23:05;;;;;;;;;;;;;;;24.27;35.85;93623.19;4947674;28;7460;-87
2022/04/06 01:25:35;;;;;;;;;;;;;;;24.30;35.58;93624.91;4946476;28;9760;-87
2022/04/06 01:28:08;;;;;;;;;;;;;;;24.29;35.90;93628.94;4940680;28;9017;-87
2022/04/06 01:30:33;;;;;;;;;;;;;;;24.30;35.87;93618.66;4941747;28;9378;-87
2022/04/06 01:33:05;;;;;;;;;;;;;;;24.22;35.78;93604.03;4940184;28;9031;-88
2022/04/06 01:35:41;;;;;;;;;;;;;;;24.25;35.98;93617.47;4964637;28;8628;-88
2022/04/06 01:38:08;;;;;;;;;;;;;;;24.22;35.66;93607.53;4928022;28;7817;-88
2022/04/06 01:40:34;;;;;;;;;;;;;;;;;;4959942;28;8787;-87
2022/04/06 01:43:01;;;;;;;;;;;;;;;24.28;35.59;93615.69;4960698;28;8742;-88
2022/04/06 01:45:27;;;;;;;;;;;;;;;24.25;35.32;93616.75;4949260;28;9292;-87
2022/04/06 01:47:59;;;;;;;;;;;;;;;24.22;36.05;93606.78;4942116;28;8766;-87
2022/04/06 01:53:14;;;;;;;;;;;;;;;24.27;36.13;93619.72;4954759;28;9058;-88
2022/04/06 01:55:40;;;;;;;;;;;;;;;24.24;35.87;93616.00;4956441;28;9181;-87
2022/04/06 01:58:06;;;;;;;;;;;;;;;24.29;35.62;93628.94;4938397;28;9038;-86
2022/04/06 02:00:33;;;;;;;;;;;;;;;24.22;35.66;93610.28;4944305;28;9035;-88
2022/04/06 02:03:04;;;;;;;;;;;;;;;24.26;35.86;93610.72;4943843;28;9316;-87
2022/04/06 02:05:37;;;;;;;;;;;;;;;24.28;35.86;93621.94;4939507;28;9205;-87
2022/04/06 02:08:03;;;;;;;;;;;;;;;24.21;35.72;93605.28;4941762;28;8720;-87
2022/04/06 02:10:31;;;;;;;;;;;;;;;24.27;36.12;93609.44;4964848;28;8607;-88
2022/04/06 02:12:58;;;;;;;;;;;;;;;;;;4963871;28;9708;-87
2022/04/06 02:15:30;;;;;;;;;;;;;;;24.22;35.78;93595.78;4965769;28;9035;-87
2022/04/06 02:17:57;;;;;;;;;;;;;;;24.27;35.84;93601.19;4941498;28;8603;-88
2022/04/06 02:20:23;;;;;;;;;;;;;;;24.19;35.54;93586.56;4966350;28;7476;-87
2022/04/06 02:22:52;;;;;;;;;;;;;;;24.26;35.88;93599.72;4939220;28;8891;-87
2022/04/06 02:25:18;;;;;;;;;;;;;;;24.25;35.74;93598.22;4948124;28;8962;-87
2022/04/06 02:27:45;;;;;;;;;;;;;;;24.24;35.70;93585.78;4939514;28;9776;-87
2022/04/06 02:30:12;;;;;;;;;;;;;;;24.21;35.60;93584.06;4938546;28;9325;-87
2022/04/06 02:32:40;;;;;;;;;;;;;;;24.25;35.89;93584.50;4947240;28;7528;-87
2022/04/06 02:35:07;;;;;;;;;;;;;;;24.18;36.22;93576.13;4934824;28;9015;-88
2022/04/06 02:37:41;;;;;;;;;;;;;;;24.21;35.50;93578.56;4955593;28;7120;-87
2022/04/06 02:40:11;;;;;;;;;;;;;;;24.22;35.67;93580.06;4967568;28;9022;-88
2022/04/06 02:42:41;;;;;;;;;;;;;;;24.17;35.91;93561.63;4954128;28;9253;-87
2022/04/06 02:45:14;;;;;;;;;;;;;;;24.16;35.60;93565.66;4946135;28;6857;-87
2022/04/06 02:47:42;;;;;;;;;;;;;;;24.25;36.14;93575.53;4938855;28;8585;-87
2022/04/06 02:50:08;;;;;;;;;;;;;;;;;;4954779;28;9061;-87
2022/04/06 02:52:41;;;;;;;;;;;;;;;24.20;36.32;93559.84;4931154;28;8768;-88
2022/04/06 02:55:09;;;;;;;;;;;;;;;24.21;35.56;93551.06;4938529;28;9062;-87
2022/04/06 02:57:37;;;;;;;;;;;;;;;24.21;35.84;93556.56;4952142;28;9135;-87
2022/04/06 03:00:07;;;;;;;;;;;;;;;24.17;35.74;93539.66;4956532;28;9095;-87
2022/04/06 03:02:32;;;;;;;;;;;;;;;24.20;35.85;93543.38;4939085;28;9157;-87
2022/04/06 03:04:58;;;;;;;;;;;;;;;24.14;35.72;93537.94;4938954;28;7512;-88
2022/04/06 03:07:34;;;;;;;;;;;;;;;24.21;35.88;93545.59;4960431;28;8584;-87
2022/04/06 03:10:07;;;;;;;;;;;;;;;24.21;35.79;93540.09;4953853;28;9181;-88
2022/04/06 03:12:39;;;;;;;;;;;;;;;24.21;35.63;93545.59;4955389;28;9292;-87
2022/04/06 03:15:08;;;;;;;;;;;;;;;24.19;35.81;93537.13;4947382;28;7131;-87
2022/04/06 03:17:38;;;;;;;;;;;;;;;24.18;36.09;93532.16;4939659;28;7036;-87
2022/04/06 03:20:14;;;;;;;;;;;;;;;24.18;35.93;93524.66;4942211;28;7339;-88
2022/04/06 03:22:41;;;;;;;;;;;;;;;24.17;35.43;93528.66;4938040;28;7058;-88
2022/04/06 03:25:13;;;;;;;;;;;;;;;24.17;36.09;93522.41;4947412;28;8873;-87
2022/04/06 03:27:42;;;;;;;;;;;;;;;24.16;35.70;93516.19;4957144;28;9168;-88
2022/04/06 03:30:11;;;;;;;;;;;;;;;24.18;36.51;93523.91;4966438;28;7034;-88
2022/04/06 03:32:40;;;;;;;;;;;;;;;24.16;35.78;93529.94;4947107;28;8761;-87
2022/04/06 03:35:06;;;;;;;;;;;;;;;24.19;35.96;93523.38;4944651;28;7294;-88
2022/04/06 03:37:33;;;;;;;;;;;;;;;24.14;36.00;93521.44;4932718;28;9251;-87
2022/04/06 03:40:05;;;;;;;;;;;;;;;24.15;35.63;93517.44;4945965;28;9094;-87
2022/04/06 03:42:39;;;;;;;;;;;;;;;24.16;35.71;93518.94;4953722;28;9269;-87
2022/04/06 03:45:09;;;;;;;;;;;;;;;24.17;35.86;93525.16;4946276;28;7026;-87
2022/04/06 03:47:40;;;;;;;;;;;;;;;24.17;35.94;93517.66;4943727;28;8630;-87
2022/04/06 03:50:07;;;;;;;;;;;;;;;24.15;35.99;93520.19;4951175;28;9029;-88
2022/04/06 03:52:38;;;;;;;;;;;;;;;24.18;35.84;93518.41;4948630;28;8909;-88
2022/04/06 03:55:07;;;;;;;;;;;;;;;24.15;35.45;93508.47;4950406;28;7282;-87
2022/04/06 03:57:37;;;;;;;;;;;;;;;24.16;35.84;93518.94;4941685;28;7278;-87
2022/04/06 04:00:07;;;;;;;;;;;;;;;24.15;35.75;93520.19;4953964;28;8698;-88
2022/04/06 04:02:37;;;;;;;;;;;;;;;24.16;35.74;93510.72;4943357;28;9050;-87
2022/04/06 04:05:04;;;;;;;;;;;;;;;24.13;35.93;93511.00;4953218;28;8586;-87
2022/04/06 04:07:31;;;;;;;;;;;;;;;24.06;35.66;93498.59;4937626;28;8705;-88
2022/04/06 04:10:00;;;;;;;;;;;;;;;24.11;35.98;93508.03;4942966;28;9182;-88
2022/04/06 04:12:26;;;;;;;;;;;;;;;24.07;35.68;93497.34;4937280;28;9007;-88
2022/04/06 04:14:52;;;;;;;;;;;;;;;24.08;35.89;93487.84;4960416;28;8600;-88
2022/04/06 04:17:19;;;;;;;;;;;;;;;24.07;36.01;93491.09;4953367;28;9221;-87
2022/04/06 04:19:45;;;;;;;;;;;;;;;24.15;35.55;93497.47;4936734;28;8786;-88
2022/04/06 04:22:14;;;;;;;;;;;;;;;24.12;35.92;93488.25;4945719;28;9076;-87
2022/04/06 04:24:42;;;;;;;;;;;;;;;24.14;35.36;93493.97;4954049;28;8643;-87
2022/04/06 04:27:10;;;;;;;;;;;;;;;24.09;35.88;93485.84;4943608;28;9076;-88
2022/04/06 04:29:38;;;;;;;;;;;;;;;24.12;36.06;93504.75;4952453;28;8652;-88
2022/04/06 04:32:11;;;;;;;;;;;;;;;24.08;35.94;93482.34;4955298;28;9012;-87
2022/04/06 04:34:43;;;;;;;;;;;;;;;24.12;35.31;93493.75;4951817;28;9049;-87
2022/04/06 04:37:12;;;;;;;;;;;;;;;24.09;36.18;93494.81;4933957;28;7013;-88
2022/04/06 04:39:39;;;;;;;;;;;;;;;24.07;35.89;93486.38;4936052;28;8724;-86
2022/04/06 04:42:05;;;;;;;;;;;;;;;24.06;36.22;93484.88;4938774;28;7003;-87
2022/04/06 04:44:34;;;;;;;;;;;;;;;24.10;35.83;93485.31;4933239;28;9099;-86
2022/04/06 04:47:08;;;;;;;;;;;;;;;24.10;36.70;93477.06;4955316;28;8773;-87
2022/04/06 04:49:42;;;;;;;;;;;;;;;24.14;35.96;93480.25;4947043;28;8828;-87
2022/04/06 04:52:08;;;;;;;;;;;;;;;24.12;36.16;93476.56;4945956;29;8755;-87
2022/04/06 04:54:34;;;;;;;;;;;;;;;24.16;35.95;93480.50;4930048;29;9079;-87
2022/04/06 04:57:05;;;;;;;;;;;;;;;24.09;36.21;93470.09;4948455;28;8637;-87
2022/04/06 04:59:32;;;;;;;;;;;;;;;24.14;35.42;93477.50;4952849;28;7062;-87
2022/04/06 05:02:01;;;;;;;;;;;;;;;24.21;35.46;93485.13;4934177;28;7016;-87
2022/04/06 05:04:30;;;;;;;;;;;;;;;24.19;35.11;93473.94;4938145;29;8748;-86
2022/04/06 05:06:56;;;;;;;;;;;;;;;24.18;35.25;93472.47;4953337;29;9038;-86
2022/04/06 05:09:26;;;;;;;;;;;;;;;24.21;35.36;93476.16;4942510;29;9159;-86
2022/04/06 05:11:52;;;;;;;;;;;;;;;24.17;34.71;93472.97;4947399;28;8906;-86
2022/04/06 05:14:27;;;;;;;;;;;;;;;24.21;35.40;93484.38;4937057;29;7228;-86
2022/04/06 05:16:58;;;;;;;;;;;;;;;24.20;34.91;93480.91;4952165;29;9183;-86
2022/04/06 05:19:24;;;;;;;;;;;;;;;24.19;35.42;93482.16;4936421;29;9062;-86
2022/04/06 05:21:50;;;;;;;;;;;;;;;24.14;35.43;93471.28;4941743;29;9016;-86
2022/04/06 05:24:16;;;;;;;;;;;;;;;24.16;35.70;93477.75;4944705;28;8903;-86
2022/04/06 05:26:42;;;;;;;;;;;;;;;24.20;35.26;93477.41;4931367;29;7100;-86
2022/04/06 05:29:08;;;;;;;;;;;;;;;24.20;35.52;93477.41;4940977;28;9252;-86
2022/04/06 05:31:34;;;;;;;;;;;;;;;24.21;35.52;93473.41;4949876;28;9066;-86
2022/04/06 05:34:05;;;;;;;;;;;;;;;24.24;35.10;93467.63;4934615;29;7382;-86
2022/04/06 05:36:35;;;;;;;;;;;;;;;24.21;35.39;93474.16;4951385;29;7325;-86
2022/04/06 05:39:03;;;;;;;;;;;;;;;24.11;35.95;93451.09;4949216;28;8750;-86
2022/04/06 05:41:29;;;;;;;;;;;;;;;24.18;35.41;93460.72;4935349;28;8742;-86
2022/04/06 05:43:56;;;;;;;;;;;;;;;24.19;35.34;93460.19;4945871;28;9043;-86
2022/04/06 05:46:34;;;;;;;;;;;;;;;24.24;35.42;93470.38;4944618;28;8836;-86
2022/04/06 05:49:04;;;;;;;;;;;;;;;24.17;35.37;93465.47;4938851;28;7006;-86
2022/04/06 05:51:31;;;;;;;;;;;;;;;24.20;36.03;93472.69;4937103;28;8731;-86
2022/04/06 05:53:57;;;;;;;;;;;;;;;24.20;36.37;93471.94;4940104;28;7306;-86
2022/04/06 05:56:23;;;;;;;;;;;;;;;24.18;35.66;93469.72;4940385;28;7223;-86
2022/04/06 05:58:50;;;;;;;;;;;;;;;24.19;35.23;93468.44;4942615;28;7106;-86
2022/04/06 06:01:16;;;;;;;;;;;;;;;24.18;35.60;93477.97;4942472;28;9110;-85
2022/04/06 06:03:44;;;;;;;;;;;;;;;24.18;35.46;93477.97;4940359;28;7839;-86
2022/04/06 06:06:14;;;;;;;;;;;;;;;24.20;35.73;93475.44;4948873;28;7064;-85
2022/04/06 06:08:41;;;;;;;;;;;;;;;24.21;35.49;93476.88;4939755;28;9029;-85
2022/04/06 06:11:16;;;;;;;;;;;;;;;24.15;35.26;93468.00;4964457;28;9062;-86
2022/04/06 06:13:45;;;;;;;;;;;;;;;24.19;35.35;93476.69;4956643;28;8980;-86
2022/04/06 06:16:18;;;;;;;;;;;;;;;24.17;35.39;93467.47;4948181;28;7463;-86
2022/04/06 06:19:04;;;;;;;;;;;;;;;24.21;35.70;93468.66;4945547;28;7196;-86
2022/04/06 06:21:33;;;;;;;;;;;;;;;24.17;35.75;93473.72;4957845;28;7399;-86
2022/04/06 06:24:05;;;;;;;;;;;;;;;24.20;35.13;93472.69;4954614;28;8778;-86
2022/04/06 06:26:44;;;;;;;;;;;;;;;24.21;35.35;93471.41;4941388;28;8818;-85
2022/04/06 06:29:11;;;;;;;;;;;;;;;24.18;35.69;93472.47;4939272;28;9029;-86
2022/04/06 06:31:48;;;;;;;;;;;;;;;24.20;35.74;93469.94;4956547;28;9266;-85
2022/04/06 06:34:22;;;;;;;;;;;;;;;24.21;36.05;93473.41;4943406;28;9022;-86
2022/04/06 06:36:48;;;;;;;;;;;;;;;24.21;35.83;93473.41;4942607;28;8698;-86
2022/04/06 06:39:20;;;;;;;;;;;;;;;24.22;35.74;93470.16;4947640;28;9104;-86
2022/04/06 06:41:53;;;;;;;;;;;;;;;24.23;35.78;93476.38;4945557;28;9085;-86
2022/04/06 06:44:21;;;;;;;;;;;;;;;24.18;36.19;93466.22;4938384;28;9038;-86
2022/04/06 06:46:52;;;;;;;;;;;;;;;24.17;35.66;93461.97;4939660;28;9135;-85
2022/04/06 06:49:22;;;;;;;;;;;;;;;24.21;35.75;93465.91;4944790;28;9019;-85
2022/04/06 06:51:48;;;;;;;;;;;;;;;24.21;35.85;93476.88;4951973;28;8748;-86
2022/04/06 06:54:42;;;;;;;;;;;;;;;24.20;36.08;93471.94;4940942;28;9420;-85
2022/04/06 06:57:10;;;;;;;;;;;;;;;24.22;36.71;93467.41;4916526;29;9743;-86
2022/04/06 06:59:47;;;;;;;;;;;;;;;24.22;36.44;93477.63;4900365;29;9019;-86
2022/04/06 07:02:14;;;;;;;;;;;;;;;24.22;35.63;93475.63;4924307;29;7422;-86
2022/04/06 07:04:49;;;;;;;;;;;;;;;24.23;36.96;93466.13;4901089;29;8813;-86
2022/04/06 07:07:24;;;;;;;;;;;;;;;24.24;36.25;93467.63;4891464;29;9001;-88
2022/04/06 07:10:00;;;;;;;;;;;;;;;24.25;36.22;93474.56;4913226;29;8811;-86
2022/04/06 07:12:27;;;;;;;;;;;;;;;24.20;36.45;93463.69;4898430;29;7494;-86
2022/04/06 07:15:02;;;;;;;;;;;;;;;24.21;36.67;93474.16;4908088;29;8777;-86
2022/04/06 07:17:50;;;;;;;;;;;;;;;24.22;36.53;93472.16;4915751;29;9189;-85
2022/04/06 07:20:19;;;;;;;;;;;;;;;24.20;36.71;93469.94;4900205;29;7320;-86
2022/04/06 07:22:46;;;;;;;;;;;;;;;24.20;36.71;93466.44;4900596;29;8753;-86
2022/04/06 07:25:12;;;;;;;;;;;;;;;24.21;36.92;93474.16;4896413;29;9047;-86
2022/04/06 07:27:54;;;;;;;;;;;;;;;24.21;36.45;93463.16;4914318;29;8844;-86
2022/04/06 07:30:20;;;;;;;;;;;;;;;24.21;36.31;93463.16;4891834;29;8768;-86
2022/04/06 07:32:48;;;;;;;;;;;;;;;24.22;37.02;93458.41;4908613;29;9119;-86
2022/04/06 07:35:16;;;;;;;;;;;;;;;24.24;36.55;93456.63;4946521;28;8902;-86
2022/04/06 07:37:47;;;;;;;;;;;;;;;24.21;36.89;93452.16;4956596;28;9045;-86
2022/04/06 07:40:21;;;;;;;;;;;;;;;24.26;37.23;93450.59;4954491;28;9445;-86
2022/04/06 07:42:50;;;;;;;;;;;;;;;24.17;37.16;93445.50;4939050;28;7512;-86
2022/04/06 07:45:21;;;;;;;;;;;;;;;24.24;36.61;93459.38;4938996;28;9070;-86
2022/04/06 07:47:54;;;;;;;;;;;;;;;24.23;36.54;93449.63;4954330;28;9009;-86
2022/04/06 07:50:29;;;;;;;;;;;;;;;24.26;36.93;93456.84;4944805;28;7272;-86
2022/04/06 07:53:00;;;;;;;;;;;;;;;24.28;36.76;93456.31;4943167;28;7052;-86
2022/04/06 07:55:26;;;;;;;;;;;;;;;24.27;36.71;93455.56;4946108;28;7291;-86
2022/04/06 07:57:55;;;;;;;;;;;;;;;24.22;36.61;93445.41;4952154;28;9036;-86
2022/04/06 08:00:21;;;;;;;;;;;;;;;24.28;37.06;93450.81;4944707;28;8216;-86
2022/04/06 08:02:51;;;;;;;;;;;;;;;24.27;37.15;93450.06;4938804;28;8748;-85
2022/04/06 08:05:30;;;;;;;;;;;;;;;24.27;36.84;93444.56;4938454;28;8835;-85
2022/04/06 08:07:58;;;;;;;;;;;;;;;24.23;37.04;93440.66;4955432;28;9093;-86
2022/04/06 08:10:30;;;;;;;;;;;;;;;24.22;37.19;93439.91;4935014;28;8929;-85
2022/04/06 08:12:58;;;;;;;;;;;;;;;24.27;37.33;93449.34;4945907;28;8718;-85
2022/04/06 08:15:36;;;;;;;;;;;;;;;24.31;36.96;93450.53;4947962;28;6949;-86
2022/04/06 08:18:03;;;;;;;;;;;;;;;24.33;36.85;93441.75;4955892;28;8725;-85
2022/04/06 08:20:28;;;;;;;;;;;;;;;24.30;37.28;93453.78;4941745;28;7424;-86
2022/04/06 08:22:56;;;;;;;;;;;;;;;24.29;37.60;93444.81;4955235;28;7099;-85
2022/04/06 08:25:22;;;;;;;;;;;;;;;24.33;37.11;93447.25;4940929;28;8760;-86
2022/04/06 08:28:20;;;;;;;;;;;;;;;24.27;36.77;93433.56;4938131;28;8716;-86
2022/04/06 08:31:02;;;;;;;;;;;;;;;24.33;36.95;93439.75;4936957;28;9469;-85
2022/04/06 08:33:31;;;;;;;;;;;;;;;24.33;37.10;93434.25;4935986;28;9008;-85
2022/04/06 08:36:09;;;;;;;;;;;;;;;24.37;36.96;93442.91;4944212;28;9032;-85
2022/04/06 08:38:35;;;;;;;;;;;;;;;24.37;36.96;93442.91;4952456;28;9017;-86
2022/04/06 08:41:06;;;;;;;;;;;;;;;24.32;36.80;93430.00;4931014;28;7028;-85
2022/04/06 08:43:45;;;;;;;;;;;;;;;24.38;37.18;93432.66;4945459;28;7368;-85
2022/04/06 08:46:15;;;;;;;;;;;;;;;24.39;36.70;93437.63;4952565;28;7567;-85
2022/04/06 08:48:52;;;;;;;;;;;;;;;24.42;37.01;93439.34;4952165;28;9030;-86
2022/04/06 08:51:20;;;;;;;;;;;;;;;24.42;37.47;93438.59;4935525;29;9439;-86
2022/04/06 08:53:56;;;;;;;;;;;;;;;24.41;37.06;93435.09;4934152;29;9002;-86
2022/04/06 08:56:39;;;;;;;;;;;;;;;24.43;37.08;93429.06;4936774;29;9040;-86
2022/04/06 08:59:07;;;;;;;;;;;;;;;24.43;36.79;93427.06;4933095;29;7145;-86
2022/04/06 09:01:35;;;;;;;;;;;;;;;24.44;36.76;93425.06;4952453;28;7258;-85
2022/04/06 09:04:15;;;;;;;;;;;;;;;24.44;36.80;93425.81;4936828;29;9009;-85
2022/04/06 09:06:47;;;;;;;;;;;;;;;24.46;37.12;93422.53;4940114;29;8957;-85
2022/04/06 09:09:28;;;;;;;;;;;;;;;24.47;36.66;93426.75;4938568;29;8692;-86
2022/04/06 09:12:07;;;;;;;;;;;;;;;24.43;36.66;93420.81;4954809;29;9531;-85
2022/04/06 09:14:35;;;;;;;;;;;;;;;24.45;36.80;93426.53;4946224;28;6977;-86
2022/04/06 09:17:07;;;;;;;;;;;;;;;24.47;37.02;93429.50;4949679;28;7459;-85
2022/04/06 09:19:45;;;;;;;;;;;;;;;24.46;36.51;93420.53;4952073;28;8058;-85
2022/04/06 09:22:16;;;;;;;;;;;;;;;24.45;36.97;93421.78;4942321;28;9148;-85
2022/04/06 09:24:54;;;;;;;;;;;;;;;24.47;36.81;93419.25;4941709;28;9420;-85
2022/04/06 09:27:49;;;;;;;;;;;;;;;24.47;36.81;93418.50;4962384;28;9001;-85
2022/04/06 09:30:24;;;;;;;;;;;;;;;24.44;36.74;93409.31;4939315;28;8593;-86
2022/04/06 09:33:02;;;;;;;;;;;;;;;24.46;37.35;93411.53;4935397;28;7258;-86
2022/04/06 09:35:34;;;;;;;;;;;;;;;24.44;37.09;93403.81;4951719;28;8732;-85
2022/04/06 09:38:22;;;;;;;;;;;;;;;24.47;37.36;93408.25;4947031;28;9115;-86
2022/04/06 09:40:53;;;;;;;;;;;;;;;24.48;36.89;93406.25;4939372;28;9619;-85
2022/04/06 09:43:28;;;;;;;;;;;;;;;24.49;37.26;93411.22;4944461;28;8732;-85
2022/04/06 09:49:13;;;;;;;;;;;;;;;24.50;37.18;93398.97;4953854;28;9085;-85
2022/04/06 09:51:46;;;;;;;;;;;;;;;24.50;37.23;93396.22;4940484;28;7278;-85
2022/04/06 09:54:23;;;;;;;;;;;;;;;24.51;37.24;93392.19;4953283;28;9088;-85
2022/04/06 09:56:54;;;;;;;;;;;;;;;24.53;37.18;93391.69;4950133;28;9409;-87
2022/04/06 09:59:29;;;;;;;;;;;;;;;24.52;37.28;93384.69;4955397;28;9089;-85
2022/04/06 10:02:00;;;;;;;;;;;;;;;24.52;37.88;93385.44;4938819;28;8789;-85
2022/04/06 10:04:30;;;;;;;;;;;;;;;24.52;37.30;93374.44;4941079;28;8737;-85
2022/04/06 10:07:06;;;;;;;;;;;;;;;24.47;37.58;93367.03;4939551;28;7085;-85
2022/04/06 10:09:37;;;;;;;;;;;;;;;24.53;37.55;93364.19;4956797;28;7113;-85
2022/04/06 10:12:12;;;;;;;;;;;;;;;24.56;37.41;93360.38;4949893;28;7256;-85
2022/04/06 10:14:50;;;;;;;;;;;;;;;24.55;37.20;93353.41;4937894;28;9049;-85
2022/04/06 10:17:21;;;;;;;;;;;;;;;24.56;36.84;93350.13;4955097;28;9152;-85
2022/04/06 10:20:06;;;;;;;;;;;;;;;24.57;36.98;93350.88;4940324;28;8772;-85
2022/04/06 10:22:45;;;;;;;;;;;;;;;24.58;37.30;93352.31;4940130;28;8642;-85
2022/04/06 10:25:38;;;;;;;;;;;;;;;24.58;37.32;93344.81;4955792;28;9032;-85
2022/04/06 10:28:11;;;;;;;;;;;;;;;24.57;37.30;93335.13;4954799;28;9048;-85
2022/04/06 10:30:38;;;;;;;;;;;;;;;24.60;37.42;93336.78;4953698;28;9176;-85
2022/04/06 10:33:21;;;;;;;;;;;;;;;24.60;36.77;93325.78;4939996;28;8763;-85
2022/04/06 10:35:51;;;;;;;;;;;;;;;24.59;37.63;93327.06;4958194;28;6937;-85
2022/04/06 10:38:22;;;;;;;;;;;;;;;24.57;37.35;93321.38;4946156;28;9418;-85
2022/04/06 10:40:59;;;;;;;;;;;;;;;24.63;37.06;93324.00;4955785;28;8634;-85
2022/04/06 10:43:40;;;;;;;;;;;;;;;24.62;37.29;93323.25;4944389;28;9391;-85
2022/04/06 10:46:07;;;;;;;;;;;;;;;24.61;37.17;93310.03;4940816;28;8844;-85
2022/04/06 10:48:33;;;;;;;;;;;;;;;24.57;37.08;93299.38;4947003;28;8782;-85
2022/04/06 10:51:35;;;;;;;;;;;;;;;24.66;37.52;93306.44;4940186;28;6906;-86
2022/04/06 10:54:14;;;;;;;;;;;;;;;24.65;37.16;93291.22;4949044;28;9021;-85
2022/04/06 10:56:52;;;;;;;;;;;;;;;24.63;36.95;93291.75;4956173;28;8752;-85
2022/04/06 10:59:22;;;;;;;;;;;;;;;24.64;36.94;93287.72;4943017;28;7213;-85
2022/04/06 11:02:25;;;;;;;;;;;;;;;24.67;37.08;93283.91;4949031;28;9027;-85
2022/04/06 11:04:52;;;;;;;;;;;;;;;24.67;37.30;93272.16;4954919;28;10001;-86
2022/04/06 11:10:34;;;;;;;;;;;;;;;24.70;37.17;93271.88;4948520;28;9039;-84
2022/04/06 11:13:08;;;;;;;;;;;;;;;24.70;36.74;93271.88;4939138;28;8723;-85
2022/04/06 11:15:37;;;;;;;;;;;;;;;24.73;37.38;93265.28;4958075;28;8819;-85
2022/04/06 11:18:26;;;;;;;;;;;;;;;24.75;37.21;93266.81;4946732;28;9036;-85
2022/04/06 11:21:01;;;;;;;;;;;;;;;24.76;37.25;93255.25;4944271;28;9063;-85
2022/04/06 11:23:29;;;;;;;;;;;;;;;24.77;37.27;93258.75;4939567;28;7359;-85
2022/04/06 11:25:59;;;;;;;;;;;;;;;24.78;37.49;93260.22;4949583;28;9144;-86
2022/04/06 11:28:35;;;;;;;;;;;;;;;24.73;37.23;93246.03;4946365;28;9214;-85
2022/04/06 11:31:04;;;;;;;;;;;;;;;24.76;36.70;93243.53;4940558;28;7519;-85
2022/04/06 11:33:42;;;;;;;;;;;;;;;24.78;37.37;93247.22;4937573;28;6998;-85
2022/04/06 11:36:39;;;;;;;;;;;;;;;24.81;37.26;93235.16;4943006;28;8906;-85
2022/04/06 11:39:38;;;;;;;;;;;;;;;24.82;37.09;93239.38;4899024;29;7445;-85
2022/04/06 11:42:19;;;;;;;;;;;;;;;24.83;36.65;93231.88;4825648;29;9110;-85
2022/04/06 11:44:48;;;;;;;;;;;;;;;24.84;36.76;93236.13;4828711;29;7510;-86
2022/04/06 11:47:17;;;;;;;;;;;;;;;24.84;36.93;93236.84;4822154;29;9106;-85
2022/04/06 11:49:44;;;;;;;;;;;;;;;24.87;37.06;93229.53;4823953;29;7248;-85
2022/04/06 11:52:20;;;;;;;;;;;;;;;24.89;36.83;93226.97;4827015;29;7261;-86
2022/04/06 11:54:55;;;;;;;;;;;;;;;24.91;37.16;93225.19;4833442;29;7498;-85
2022/04/06 11:57:39;;;;;;;;;;;;;;;24.84;36.69;93211.38;4823752;29;7231;-85
2022/04/06 12:00:15;;;;;;;;;;;;;;;24.94;36.86;93220.63;4827650;29;7046;-85
2022/04/06 12:02:56;;;;;;;;;;;;;;;24.96;36.59;93218.06;4854984;29;7274;-85
2022/04/06 12:05:24;;;;;;;;;;;;;;;24.96;36.92;93212.59;4856093;29;8761;-86
2022/04/06 12:08:15;;;;;;;;;;;;;;;24.98;36.76;93208.03;4825488;29;6861;-85
2022/04/06 12:10:58;;;;;;;;;;;;;;;24.96;36.82;93207.81;4821716;29;8715;-85
2022/04/06 12:13:41;;;;;;;;;;;;;;;25.00;36.64;93202.72;4843705;29;8766;-84
2022/04/06 12:16:22;;;;;;;;;;;;;;;25.00;36.70;93194.47;4845676;29;7151;-85
2022/04/06 12:18:56;;;;;;;;;;;;;;;25.04;36.32;93194.13;4926995;28;9008;-85
2022/04/06 12:21:25;;;;;;;;;;;;;;;25.04;37.13;93188.63;4943528;28;8729;-85
2022/04/06 12:23:54;;;;;;;;;;;;;;;25.01;36.95;93186.97;4948822;28;9374;-85
2022/04/06 12:26:22;;;;;;;;;;;;;;;25.01;36.65;93184.22;4941417;28;9028;-85
2022/04/06 12:28:57;;;;;;;;;;;;;;;24.99;36.87;93176.47;4938366;28;7278;-85
2022/04/06 12:31:43;;;;;;;;;;;;;;;25.06;36.84;93178.56;4938223;28;7038;-85
2022/04/06 12:34:31;;;;;;;;;;;;;;;25.08;36.70;93170.50;4962171;28;9330;-85
2022/04/06 12:37:46;;;;;;;;;;;;;;;25.10;37.00;93167.25;4950232;28;9017;-85
2022/04/06 12:39:57;;;;;;;;;;;;;;;25.10;36.70;93159.00;4949219;28;9589;-85
2022/04/06 12:42:37;;;;;;;;;;;;;;;25.12;36.78;93161.94;4936168;28;8801;-85
2022/04/06 12:45:09;;;;;;;;;;;;;;;25.12;36.67;93162.66;4964280;28;7314;-85
2022/04/06 12:47:35;;;;;;;;;;;;;;;25.13;36.43;93155.16;4944184;28;9324;-85
2022/04/06 12:50:35;;;;;;;;;;;;;;;25.18;36.78;93159.78;4953010;28;8742;-85
2022/04/06 12:53:10;;;;;;;;;;;;;;;25.17;36.48;93148.03;4943018;28;9381;-85
2022/04/06 12:55:42;;;;;;;;;;;;;;;25.15;36.70;93147.09;4963303;28;7363;-85
2022/04/06 12:58:26;;;;;;;;;;;;;;;25.22;36.79;93149.94;4954775;28;9098;-85
2022/04/06 13:01:02;;;;;;;;;;;;;;;25.21;36.37;93153.94;4936661;29;8745;-85
2022/04/06 13:03:35;;;;;;;;;;;;;;;25.22;36.50;93140.94;4945686;28;7329;-86
2022/04/06 13:06:01;;;;;;;;;;;;;;;25.19;36.62;93133.72;4946340;29;9057;-85
2022/04/06 13:08:29;;;;;;;;;;;;;;;25.20;36.94;93132.47;4937909;29;9210;-85
2022/04/06 13:11:02;;;;;;;;;;;;;;;25.23;36.60;93134.88;4950160;29;9020;-85
2022/04/06 13:13:37;;;;;;;;;;;;;;;25.24;36.38;93130.13;4946999;29;8752;-85
2022/04/06 13:16:05;;;;;;;;;;;;;;;25.26;36.41;93122.06;4951979;28;8722;-86
2022/04/06 13:18:39;;;;;;;;;;;;;;;25.24;35.77;93119.84;4934763;29;9037;-85
2022/04/06 13:21:05;;;;;;;;;;;;;;;25.22;36.19;93121.66;4945437;29;7207;-85
2022/04/06 13:23:30;;;;;;;;;;;;;;;25.18;36.81;93113.75;4960755;28;9172;-86
2022/04/06 13:25:56;;;;;;;;;;;;;;;25.25;36.37;93110.31;4952946;28;9098;-85
2022/04/06 13:28:35;;;;;;;;;;;;;;;25.25;36.20;93104.81;4943110;28;7262;-86
2022/04/06 13:31:13;;;;;;;;;;;;;;;25.29;36.31;93109.97;4950934;28;8644;-85